Terminal Aerodrome Forecast
Issued by NWS

Home | Current Version | Previous Version | Text Only | Print | Product List | Glossary On
Versions: 1 2 3 4 5 6 7 8 9 10 11 12 13 14 15 16 17
000
FTUS43 KJKL 261700
TAFSME
TAF
KSME 261733Z 2618/2718 19005KT P6SM SCT250
     FM270800 00000KT P6SM BKN100
     FM271400 20008KT P6SM BKN060=

USA.gov is the U.S. government's official web portal to all federal, state and local government web resources and services.